Time;durP1;ratioP1;P1;durP2;ratioP2;P2;SDS_P1;SDS_P2;PMS_P1;PMS_P2;Temp;Humidity;BMP_temperature;BMP_pressure;BME280_temperature;BME280_humidity;BME280_pressure;Samples;Min_cycle;Max_cycle;Signal;HPM_P1;HPM_P2
2022/07/23 00:02:00;;;;;;;9.95;5.50;;;22.10;99.90;;;;;;4992415;28;20023;-56
2022/07/23 00:04:26;;;;;;;8.00;4.80;;;22.00;99.90;;;;;;4992489;28;20129;-52
2022/07/23 00:06:51;;;;;;;9.38;5.22;;;22.00;99.90;;;;;;4977695;28;20042;-55
2022/07/23 00:09:17;;;;;;;6.53;4.78;;;22.10;99.90;;;;;;4977325;28;20031;-56
2022/07/23 00:11:43;;;;;;;5.80;4.68;;;22.20;99.90;;;;;;4992270;28;20118;-57
2022/07/23 00:14:08;;;;;;;7.43;5.10;;;22.30;99.90;;;;;;4977797;28;20101;-53
2022/07/23 00:16:34;;;;;;;8.38;6.05;;;22.30;99.90;;;;;;4992449;28;20027;-50
2022/07/23 00:19:01;;;;;;;9.82;6.97;;;22.30;99.90;;;;;;4992417;28;20110;-51
2022/07/23 00:21:26;;;;;;;7.43;5.60;;;22.20;99.90;;;;;;4976939;28;20049;-51
2022/07/23 00:23:52;;;;;;;10.63;6.35;;;22.30;99.90;;;;;;4976299;28;20031;-56
2022/07/23 00:26:18;;;;;;;8.57;6.03;;;22.20;99.90;;;;;;4977525;28;20041;-54
2022/07/23 00:28:43;;;;;;;16.27;5.82;;;22.20;99.90;;;;;;4992322;28;20061;-58
2022/07/23 00:31:09;;;;;;;10.73;6.40;;;22.00;99.90;;;;;;4976883;28;20034;-58
2022/07/23 00:33:35;;;;;;;9.15;5.75;;;22.00;99.90;;;;;;4977229;28;20027;-58
2022/07/23 00:36:00;;;;;;;9.63;6.03;;;21.80;99.90;;;;;;4977094;28;20030;-57
2022/07/23 00:38:26;;;;;;;10.23;5.90;;;21.80;99.90;;;;;;4977053;28;20027;-59
2022/07/23 00:40:51;;;;;;;10.98;6.22;;;21.80;99.90;;;;;;4992632;28;20019;-58
2022/07/23 00:43:20;;;;;;;12.13;6.38;;;21.70;99.90;;;;;;4977009;28;20034;-58
2022/07/23 00:45:46;;;;;;;7.70;5.25;;;21.60;99.90;;;;;;4991638;28;20030;-59
2022/07/23 00:48:11;;;;;;;9.77;5.97;;;21.60;99.90;;;;;;4991876;28;20121;-58
2022/07/23 00:50:37;;;;;;;8.52;5.53;;;21.80;99.90;;;;;;4991784;28;20030;-55
2022/07/23 00:53:04;;;;;;;8.02;5.68;;;21.60;99.90;;;;;;4975351;28;20038;-59
2022/07/23 00:55:30;;;;;;;11.75;7.03;;;21.70;99.90;;;;;;4976414;28;20022;-54
2022/07/23 00:57:56;;;;;;;9.25;5.95;;;21.50;99.90;;;;;;4976865;28;20031;-57
2022/07/23 01:00:22;;;;;;;13.32;6.43;;;21.30;99.90;;;;;;4976418;28;20080;-57
2022/07/23 01:02:47;;;;;;;10.23;6.20;;;21.20;99.90;;;;;;4991441;28;20027;-59
2022/07/23 01:05:13;;;;;;;10.25;6.72;;;21.20;99.90;;;;;;4991218;28;20026;-58
2022/07/23 01:07:39;;;;;;;10.70;6.88;;;21.10;99.90;;;;;;4976500;28;20043;-59
2022/07/23 01:10:30;;;;;;;12.35;7.35;;;21.10;99.90;;;;;;4991139;28;20026;-59
2022/07/23 01:12:51;;;;;;;9.45;6.28;;;21.00;99.90;;;;;;4976555;28;20030;-59
2022/07/23 01:15:16;;;;;;;9.60;6.10;;;21.00;99.90;;;;;;4976177;28;20031;-57
2022/07/23 01:17:42;;;;;;;9.43;6.13;;;21.10;99.90;;;;;;4974895;28;20104;-57
2022/07/23 01:20:08;;;;;;;9.50;6.15;;;21.20;99.90;;;;;;4991112;28;20037;-60
2022/07/23 01:22:34;;;;;;;10.80;5.90;;;21.20;99.90;;;;;;4991097;28;20031;-60
2022/07/23 01:24:59;;;;;;;9.45;6.25;;;21.30;99.90;;;;;;4991259;28;20366;-59
2022/07/23 01:27:25;;;;;;;8.48;6.00;;;21.40;99.90;;;;;;4990868;28;20081;-54
2022/07/23 01:29:51;;;;;;;11.88;7.32;;;21.40;99.90;;;;;;4990882;28;20129;-56
2022/07/23 01:32:16;;;;;;;11.65;6.05;;;21.40;99.90;;;;;;4990755;28;20033;-57
2022/07/23 01:34:42;;;;;;;8.98;6.07;;;21.30;99.90;;;;;;4991538;28;20031;-58
2022/07/23 01:37:07;;;;;;;9.80;5.80;;;21.40;99.90;;;;;;4990752;28;20019;-54
2022/07/23 01:39:33;;;;;;;11.88;6.65;;;21.40;99.90;;;;;;4991151;28;20019;-56
2022/07/23 01:41:59;;;;;;;8.77;5.75;;;21.20;99.90;;;;;;4991356;28;20027;-59
2022/07/23 01:44:24;;;;;;;8.95;6.45;;;21.20;99.90;;;;;;4990596;28;20022;-57
2022/07/23 01:46:50;;;;;;;10.02;6.25;;;21.20;99.90;;;;;;4990476;28;20029;-57
2022/07/23 01:49:15;;;;;;;9.95;6.30;;;21.10;99.90;;;;;;4974283;28;20042;-58
2022/07/23 01:51:59;;;;;;;10.48;6.70;;;21.20;99.90;;;;;;4974455;28;20027;-58
2022/07/23 01:54:34;;;;;;;9.05;5.97;;;21.10;99.90;;;;;;4990595;28;20023;-57
2022/07/23 01:57:00;;;;;;;11.00;7.65;;;21.20;99.90;;;;;;4990318;28;20037;-60
2022/07/23 01:59:26;;;;;;;10.95;6.20;;;21.10;99.90;;;;;;4975338;28;20022;-60
2022/07/23 02:01:52;;;;;;;10.05;6.00;;;21.10;99.90;;;;;;4975883;28;20114;-59
2022/07/23 02:04:18;;;;;;;10.13;6.07;;;21.10;99.90;;;;;;4974904;28;20061;-57
2022/07/23 02:06:44;;;;;;;10.95;6.78;;;21.10;99.90;;;;;;4975440;28;20469;-57
2022/07/23 02:09:10;;;;;;;12.00;6.55;;;21.20;99.90;;;;;;4975211;28;20117;-58
2022/07/23 02:11:36;;;;;;;11.45;6.75;;;21.10;99.90;;;;;;4975152;28;20034;-54
2022/07/23 02:14:01;;;;;;;11.13;6.13;;;21.10;99.90;;;;;;4975473;28;20027;-56
2022/07/23 02:16:27;;;;;;;10.80;7.15;;;21.10;99.90;;;;;;4975561;28;20037;-57
2022/07/23 02:18:52;;;;;;;11.73;6.57;;;21.10;99.90;;;;;;4975493;28;20034;-54
2022/07/23 02:21:18;;;;;;;10.13;6.43;;;21.10;99.90;;;;;;4989771;28;20097;-58
2022/07/23 02:23:44;;;;;;;17.00;8.52;;;21.00;99.90;;;;;;4990192;28;20073;-56
2022/07/23 02:26:09;;;;;;;11.27;7.47;;;21.00;99.90;;;;;;4990342;28;20489;-57
2022/07/23 02:28:35;;;;;;;13.45;7.38;;;21.00;99.90;;;;;;4990972;28;20027;-59
2022/07/23 02:31:00;;;;;;;11.18;6.63;;;20.90;99.90;;;;;;4974794;28;20066;-59
2022/07/23 02:33:26;;;;;;;12.27;7.13;;;20.90;99.90;;;;;;4975377;28;20027;-58
2022/07/23 02:35:52;;;;;;;11.63;6.80;;;20.90;99.90;;;;;;4989665;28;20027;-56
2022/07/23 02:38:17;;;;;;;11.70;7.00;;;20.90;99.90;;;;;;4975051;28;20019;-55
2022/07/23 02:40:43;;;;;;;11.48;6.00;;;20.90;99.90;;;;;;4989840;28;20027;-53
2022/07/23 02:43:08;;;;;;;13.73;6.47;;;20.90;99.90;;;;;;4989902;28;20366;-57
2022/07/23 02:45:34;;;;;;;11.15;7.03;;;20.90;99.90;;;;;;4974746;28;20062;-59
2022/07/23 02:47:59;;;;;;;10.35;6.63;;;20.90;99.90;;;;;;4974596;28;20022;-54
2022/07/23 02:50:25;;;;;;;8.90;5.95;;;20.90;99.90;;;;;;4974539;28;20070;-60
2022/07/23 02:52:51;;;;;;;12.13;7.40;;;20.90;99.90;;;;;;4974544;28;20114;-59
2022/07/23 02:55:16;;;;;;;9.10;6.40;;;20.80;99.90;;;;;;4989834;28;20031;-57
2022/07/23 02:57:42;;;;;;;10.23;5.68;;;20.80;99.90;;;;;;4974547;28;20077;-57
2022/07/23 03:00:08;;;;;;;11.10;6.30;;;20.80;99.90;;;;;;4974411;28;20023;-57
2022/07/23 03:02:34;;;;;;;14.40;8.10;;;20.60;99.90;;;;;;4975075;28;20373;-57
2022/07/23 03:04:59;;;;;;;9.02;6.38;;;20.60;99.90;;;;;;4989525;28;20026;-57
2022/07/23 03:07:25;;;;;;;12.23;6.63;;;20.50;99.90;;;;;;4974397;28;20432;-57
2022/07/23 03:09:50;;;;;;;13.00;7.78;;;20.60;99.90;;;;;;4974345;28;20030;-57
2022/07/23 03:12:16;;;;;;;13.50;6.65;;;20.50;99.90;;;;;;4973162;28;20034;-54
2022/07/23 03:14:42;;;;;;;10.43;6.60;;;20.50;99.90;;;;;;4974545;28;20038;-53
2022/07/23 03:17:08;;;;;;;9.65;6.28;;;20.50;99.90;;;;;;4977006;28;20030;-52
2022/07/23 03:19:34;;;;;;;10.63;6.60;;;20.50;99.90;;;;;;4993327;28;20033;-50
2022/07/23 03:21:59;;;;;;;13.70;7.13;;;20.50;99.90;;;;;;4993346;28;20027;-51
2022/07/23 03:24:53;;;;;;;14.00;7.47;;;20.40;99.90;;;;;;4977028;28;20493;-52
2022/07/23 03:27:10;;;;;;;12.30;7.13;;;20.30;99.90;;;;;;4978358;28;20027;-55
2022/07/23 03:29:36;;;;;;;11.90;8.10;;;20.30;99.90;;;;;;4993092;28;20027;-53
2022/07/23 03:32:03;;;;;;;19.50;8.45;;;20.20;99.90;;;;;;4978093;28;20014;-50
2022/07/23 03:34:29;;;;;;;12.63;8.18;;;20.20;99.90;;;;;;4976816;28;20027;-53
2022/07/23 03:36:54;;;;;;;12.45;7.20;;;20.30;99.90;;;;;;4992905;28;20037;-52
2022/07/23 03:39:20;;;;;;;17.42;8.77;;;20.20;99.90;;;;;;4978219;28;20042;-51
2022/07/23 03:41:45;;;;;;;12.88;7.15;;;20.20;99.90;;;;;;4992791;28;20019;-57
2022/07/23 03:44:11;;;;;;;18.83;8.55;;;20.30;99.90;;;;;;4978162;28;20128;-54
2022/07/23 03:46:37;;;;;;;12.85;7.82;;;20.30;99.90;;;;;;4977848;28;20494;-50
2022/07/23 03:49:02;;;;;;;14.23;7.38;;;20.30;99.90;;;;;;4977740;28;20022;-50
2022/07/23 03:51:28;;;;;;;14.18;8.00;;;20.40;99.90;;;;;;4977674;28;20033;-52
2022/07/23 03:53:55;;;;;;;14.25;7.95;;;20.40;99.90;;;;;;4992693;28;20074;-56
2022/07/23 03:56:21;;;;;;;11.70;7.70;;;20.50;99.90;;;;;;4977843;28;20023;-52
2022/07/23 03:58:46;;;;;;;16.30;7.72;;;20.40;99.90;;;;;;4992574;28;20019;-51
2022/07/23 04:01:12;;;;;;;13.93;8.02;;;20.40;99.90;;;;;;4977783;28;20050;-51
2022/07/23 04:03:38;;;;;;;13.98;8.15;;;20.40;99.90;;;;;;4992504;28;20027;-53
2022/07/23 04:06:04;;;;;;;14.80;7.88;;;20.40;99.90;;;;;;4977445;28;20102;-54
2022/07/23 04:08:29;;;;;;;9.48;6.43;;;20.50;99.90;;;;;;4977357;28;20034;-55
2022/07/23 04:10:55;;;;;;;13.25;9.05;;;20.50;99.90;;;;;;4977265;28;20389;-57
2022/07/23 04:13:21;;;;;;;13.70;8.18;;;20.40;99.90;;;;;;4977338;28;20041;-57
2022/07/23 04:15:46;;;;;;;15.32;8.13;;;20.30;99.90;;;;;;4977441;28;20023;-50
2022/07/23 04:18:12;;;;;;;13.15;7.63;;;20.30;99.90;;;;;;4977514;28;20083;-50
2022/07/23 04:20:38;;;;;;;12.82;7.88;;;20.30;99.90;;;;;;4977321;28;20038;-54
2022/07/23 04:23:03;;;;;;;13.90;8.82;;;20.30;99.90;;;;;;4977408;28;20027;-50
2022/07/23 04:25:29;;;;;;;16.73;8.15;;;20.30;99.90;;;;;;4992168;28;20394;-52
2022/07/23 04:27:55;;;;;;;14.82;7.50;;;20.40;99.90;;;;;;4976800;28;20050;-54
2022/07/23 04:30:20;;;;;;;15.15;8.45;;;20.30;99.90;;;;;;4976923;28;20081;-51
2022/07/23 04:32:46;;;;;;;17.35;8.10;;;20.30;99.90;;;;;;4976982;28;20023;-53
2022/07/23 04:35:11;;;;;;;12.60;7.75;;;20.60;99.90;;;;;;4991761;28;20173;-51
2022/07/23 04:37:37;;;;;;;15.65;7.40;;;20.80;99.90;;;;;;4976973;28;20034;-51
2022/07/23 04:40:03;;;;;;;13.63;8.30;;;20.80;99.90;;;;;;4991738;28;20027;-49
2022/07/23 04:42:29;;;;;;;14.20;7.78;;;21.10;99.90;;;;;;4977244;28;20031;-49
2022/07/23 04:44:54;;;;;;;13.73;7.78;;;21.30;99.90;;;;;;4975518;28;20474;-52
2022/07/23 04:47:20;;;;;;;11.90;6.82;;;21.40;99.90;;;;;;4976761;28;20057;-49
2022/07/23 04:49:46;;;;;;;13.52;8.00;;;21.80;99.90;;;;;;4975646;28;20061;-49
2022/07/23 04:52:11;;;;;;;11.60;6.68;;;21.80;99.90;;;;;;4976586;28;20031;-49
2022/07/23 04:54:37;;;;;;;9.55;6.03;;;21.90;99.90;;;;;;4976833;28;20417;-51
2022/07/23 04:57:02;;;;;;;14.65;6.85;;;22.10;99.90;;;;;;4976445;28;20437;-51
2022/07/23 04:59:28;;;;;;;13.35;6.80;;;22.30;99.90;;;;;;4991717;28;20019;-49
2022/07/23 05:01:54;;;;;;;10.38;6.72;;;22.50;99.90;;;;;;4975342;28;20044;-52
2022/07/23 05:04:19;;;;;;;11.13;6.95;;;22.80;99.90;;;;;;4975525;28;20121;-52
2022/07/23 05:06:45;;;;;;;10.30;6.57;;;23.00;99.90;;;;;;4976389;28;20037;-53
2022/07/23 05:09:11;;;;;;;14.10;7.47;;;23.10;99.90;;;;;;4976378;28;20118;-49
2022/07/23 05:11:36;;;;;;;13.75;7.05;;;23.30;99.90;;;;;;4991118;28;20054;-53
2022/07/23 05:14:22;;;;;;;9.60;7.03;;;23.50;99.90;;;;;;4976225;28;20027;-52
2022/07/23 05:16:47;;;;;;;13.20;6.95;;;23.70;99.90;;;;;;4991074;28;20034;-55
2022/07/23 05:19:13;;;;;;;13.95;7.68;;;23.90;99.90;;;;;;4991150;28;20118;-51
2022/07/23 05:21:39;;;;;;;13.13;7.47;;;24.00;99.90;;;;;;4975921;28;20026;-51
2022/07/23 05:24:05;;;;;;;11.98;6.97;;;24.10;99.90;;;;;;4976057;28;20037;-51
2022/07/23 05:26:31;;;;;;;12.02;5.97;;;24.40;99.90;;;;;;4976248;28;20042;-49
2022/07/23 05:28:57;;;;;;;14.50;6.43;;;24.80;99.90;;;;;;4976231;28;20031;-49
2022/07/23 05:31:22;;;;;;;13.02;7.38;;;25.20;99.90;;;;;;4990813;28;20031;-51
2022/07/23 05:33:48;;;;;;;8.27;5.85;;;25.30;99.90;;;;;;4976158;28;20113;-52
2022/07/23 05:36:13;;;;;;;12.93;7.38;;;25.60;99.90;;;;;;4975727;28;20034;-49
2022/07/23 05:38:39;;;;;;;11.13;6.60;;;25.70;99.90;;;;;;4975037;28;20082;-49
2022/07/23 05:41:05;;;;;;;10.40;6.00;;;26.10;99.90;;;;;;4974440;28;20023;-49
2022/07/23 05:43:30;;;;;;;9.30;6.25;;;26.30;99.90;;;;;;4975707;28;20493;-52
2022/07/23 05:45:56;;;;;;;12.38;6.50;;;26.70;99.90;;;;;;4975936;28;20030;-47
2022/07/23 05:48:21;;;;;;;8.20;5.85;;;27.10;99.90;;;;;;4990567;28;20482;-50
2022/07/23 05:50:47;;;;;;;12.10;6.35;;;27.40;99.90;;;;;;4975468;28;20030;-51
2022/07/23 05:53:13;;;;;;;7.60;5.43;;;27.50;99.90;;;;;;4990397;28;20031;-47
2022/07/23 05:55:39;;;;;;;7.55;4.97;;;27.70;99.90;;;;;;4990376;28;20073;-46
2022/07/23 05:58:05;;;;;;;10.70;6.50;;;27.90;99.90;;;;;;4990661;28;20021;-47
2022/07/23 06:00:30;;;;;;;8.52;6.03;;;28.30;99.90;;;;;;4990945;28;20077;-48
2022/07/23 06:02:56;;;;;;;9.13;5.78;;;28.50;99.90;;;;;;4990596;28;20043;-46
2022/07/23 06:05:23;;;;;;;6.82;5.28;;;28.80;99.90;;;;;;4990521;28;20035;-46
2022/07/23 06:07:49;;;;;;;9.20;5.82;;;29.20;99.90;;;;;;4990252;28;20058;-49
2022/07/23 06:10:14;;;;;;;8.32;5.28;;;29.60;99.90;;;;;;4975125;28;20031;-47
2022/07/23 06:12:40;;;;;;;7.13;5.30;;;29.40;99.90;;;;;;4991023;28;20034;-47
2022/07/23 06:15:07;;;;;;;7.63;4.82;;;29.70;99.90;;;;;;4990821;28;20113;-48
2022/07/23 06:17:33;;;;;;;8.50;4.68;;;30.10;99.90;;;;;;4990074;28;20493;-47
2022/07/23 06:19:59;;;;;;;7.22;4.88;;;30.60;99.90;;;;;;4989924;28;20026;-50
2022/07/23 06:22:24;;;;;;;7.53;5.28;;;30.80;99.90;;;;;;4990486;28;20457;-47
2022/07/23 06:24:51;;;;;;;6.93;4.55;;;31.20;99.90;;;;;;4974953;28;20019;-52
2022/07/23 06:27:17;;;;;;;12.85;5.88;;;31.50;99.90;;;;;;4989901;28;20486;-50
2022/07/23 06:29:43;;;;;;;7.95;4.78;;;32.00;98.70;;;;;;4989999;28;20074;-47
2022/07/23 06:32:09;;;;;;;7.30;5.53;;;32.30;98.90;;;;;;4989737;28;20022;-47
2022/07/23 06:34:34;;;;;;;9.38;5.80;;;32.50;96.50;;;;;;4990627;28;20062;-48
2022/07/23 06:37:00;;;;;;;5.57;4.47;;;32.40;95.00;;;;;;4974954;28;20108;-46
2022/07/23 06:39:26;;;;;;;9.57;5.40;;;32.00;96.90;;;;;;4989866;28;20065;-50
2022/07/23 06:41:52;;;;;;;7.75;5.10;;;32.30;95.90;;;;;;4989696;28;20041;-46
2022/07/23 06:44:18;;;;;;;13.05;4.97;;;32.60;94.90;;;;;;4974737;28;20027;-47
2022/07/23 06:46:44;;;;;;;6.10;5.28;;;33.00;93.80;;;;;;4974688;28;20031;-46
2022/07/23 06:49:09;;;;;;;8.68;4.65;;;32.60;93.10;;;;;;4974670;28;20038;-47
2022/07/23 06:51:35;;;;;;;7.97;5.43;;;32.50;93.50;;;;;;4974502;28;20151;-47
2022/07/23 06:54:01;;;;;;;10.45;5.03;;;32.50;92.70;;;;;;4989630;28;20038;-46
2022/07/23 06:56:27;;;;;;;7.75;5.47;;;32.50;92.40;;;;;;4974808;28;20100;-49
2022/07/23 06:58:52;;;;;;;7.63;5.32;;;32.30;92.30;;;;;;4989657;28;20023;-52
2022/07/23 07:01:19;;;;;;;9.57;5.18;;;32.00;93.00;;;;;;4989807;28;20033;-49
2022/07/23 07:03:44;;;;;;;12.50;5.78;;;32.20;92.80;;;;;;4989473;28;20023;-46
2022/07/23 07:06:10;;;;;;;7.07;4.75;;;32.10;91.80;;;;;;4989439;28;20110;-46
2022/07/23 07:08:36;;;;;;;10.73;6.25;;;32.00;91.90;;;;;;4974464;28;20030;-47
2022/07/23 07:11:02;;;;;;;6.88;5.20;;;31.90;91.80;;;;;;4989657;28;20019;-46
2022/07/23 07:13:28;;;;;;;7.25;4.68;;;32.20;92.10;;;;;;4974711;28;20074;-47
2022/07/23 07:15:53;;;;;;;7.43;5.22;;;33.00;91.10;;;;;;4989948;28;20031;-47
2022/07/23 07:18:19;;;;;;;7.95;4.63;;;33.70;90.40;;;;;;4973091;28;20031;-47
2022/07/23 07:20:45;;;;;;;7.22;4.63;;;34.40;89.30;;;;;;4989548;28;20026;-46
2022/07/23 07:23:11;;;;;;;5.63;5.07;;;35.10;86.00;;;;;;4989521;28;20432;-47
2022/07/23 07:25:37;;;;;;;7.32;5.57;;;35.10;84.70;;;;;;4989270;28;20034;-47
2022/07/23 07:28:03;;;;;;;9.65;4.95;;;34.80;82.90;;;;;;4974289;28;20034;-46
2022/07/23 07:30:28;;;;;;;11.50;4.82;;;33.80;84.10;;;;;;4989170;28;20035;-47
2022/07/23 07:32:54;;;;;;;9.43;4.43;;;33.50;85.20;;;;;;4974245;28;20042;-46
2022/07/23 07:35:19;;;;;;;6.95;4.13;;;33.10;84.40;;;;;;4974080;28;20031;-50
2022/07/23 07:37:45;;;;;;;6.80;4.90;;;33.20;84.70;;;;;;4989164;28;20181;-46
2022/07/23 07:40:11;;;;;;;6.72;3.97;;;33.10;82.10;;;;;;4974313;28;20026;-47
2022/07/23 07:42:51;;;;;;;8.15;4.30;;;32.80;85.30;;;;;;4989066;28;20086;-47
2022/07/23 07:45:19;;;;;;;;;;;33.70;83.10;;;;;;4989615;28;20053;-46
2022/07/23 07:47:45;;;;;;;6.88;4.07;;;34.80;80.80;;;;;;4974067;28;19913;-47
2022/07/23 07:50:10;;;;;;;5.47;4.07;;;35.00;80.40;;;;;;4974234;28;20035;-46
2022/07/23 07:52:36;;;;;;;5.30;4.03;;;34.00;80.60;;;;;;4988979;28;20058;-46
2022/07/23 07:55:06;;;;;;;4.90;3.70;;;34.80;78.00;;;;;;4972795;28;20031;-46
2022/07/23 07:57:32;;;;;;;;;;;35.80;76.50;;;;;;4973295;28;20019;-47
2022/07/23 07:59:58;;;;;;;6.40;3.97;;;36.60;73.00;;;;;;4973948;28;19906;-46
2022/07/23 08:02:23;;;;;;;5.55;3.60;;;37.60;70.90;;;;;;4990517;28;20203;-48
2022/07/23 08:04:49;;;;;;;5.35;3.65;;;37.90;69.80;;;;;;4992476;28;20026;-48
2022/07/23 08:07:15;;;;;;;4.82;3.42;;;38.40;68.90;;;;;;4977561;28;20058;-48
2022/07/23 08:09:41;;;;;;;5.70;3.85;;;39.50;68.50;;;;;;4992393;28;20117;-47
2022/07/23 08:12:07;;;;;;;5.07;3.42;;;39.90;63.30;;;;;;4992415;28;20082;-51
2022/07/23 08:14:32;;;;;;;9.93;4.28;;;38.20;64.10;;;;;;4992329;28;20396;-46
2022/07/23 08:16:58;;;;;;;6.47;4.35;;;36.50;66.30;;;;;;4977222;28;20019;-46
2022/07/23 08:19:24;;;;;;;6.00;3.92;;;35.70;67.00;;;;;;4977193;28;20073;-48
2022/07/23 08:21:49;;;;;;;6.80;4.40;;;36.90;68.00;;;;;;4977591;28;20034;-48
2022/07/23 08:24:15;;;;;;;4.45;3.83;;;35.90;66.90;;;;;;4992476;28;20030;-46
2022/07/23 08:26:40;;;;;;;7.80;3.70;;;35.70;68.30;;;;;;4977106;28;20023;-47
2022/07/23 08:29:06;;;;;;;6.88;3.80;;;36.80;66.40;;;;;;4992365;28;20031;-46
2022/07/23 08:31:32;;;;;;;5.47;3.03;;;37.70;65.40;;;;;;4976983;28;20042;-46
2022/07/23 08:33:59;;;;;;;5.10;3.75;;;38.90;65.30;;;;;;4976548;28;20055;-46
2022/07/23 08:36:27;;;;;;;5.10;3.00;;;40.00;60.60;;;;;;4976938;28;20515;-46
2022/07/23 08:38:53;;;;;;;5.32;3.50;;;39.60;61.10;;;;;;4991967;28;20058;-47
2022/07/23 08:41:20;;;;;;;4.43;3.40;;;40.70;59.00;;;;;;4976817;28;20481;-49
2022/07/23 08:43:46;;;;;;;6.03;3.60;;;41.30;57.40;;;;;;4992032;28;20026;-50
2022/07/23 08:49:33;;;;;;;9.27;3.70;;;41.90;56.00;;;;;;4976954;28;20022;-47
2022/07/23 08:51:59;;;;;;;4.78;3.10;;;42.60;55.00;;;;;;4992528;28;20023;-49
2022/07/23 08:54:25;;;;;;;3.50;3.20;;;42.60;54.70;;;;;;4992630;28;20065;-48
2022/07/23 08:56:51;;;;;;;6.82;3.20;;;42.70;53.90;;;;;;4991521;28;20082;-57
2022/07/23 08:59:17;;;;;;;5.40;3.55;;;42.90;54.40;;;;;;4976575;28;20034;-57
2022/07/23 09:01:42;;;;;;;5.40;3.22;;;43.50;52.90;;;;;;4976810;28;20062;-59
2022/07/23 09:04:08;;;;;;;5.38;3.75;;;43.60;53.00;;;;;;4976418;28;20023;-59
2022/07/23 09:06:34;;;;;;;4.32;3.83;;;43.70;50.40;;;;;;4991635;28;20027;-59
2022/07/23 09:09:16;;;;;;;3.90;3.60;;;42.90;51.70;;;;;;4992638;28;20053;-49
2022/07/23 09:11:46;;;;;;;6.15;3.95;;;40.80;52.10;;;;;;4973840;28;20035;-48
2022/07/23 09:14:12;;;;;;;6.47;3.55;;;39.60;53.70;;;;;;4991016;28;20027;-47
2022/07/23 09:16:38;;;;;;;3.90;3.42;;;40.50;53.90;;;;;;4991138;28;20034;-47
2022/07/23 09:19:06;;;;;;;4.40;3.42;;;41.40;54.60;;;;;;4991112;28;20025;-47
2022/07/23 09:21:39;;;;;;;6.15;3.58;;;42.60;51.80;;;;;;4990937;28;20026;-50
2022/07/23 09:24:11;;;;;;;5.85;3.40;;;43.70;50.50;;;;;;4991076;28;20027;-48
2022/07/23 09:26:47;;;;;;;7.90;3.88;;;44.20;49.20;;;;;;4974798;28;20050;-47
2022/07/23 09:29:25;;;;;;;4.43;3.88;;;44.40;49.00;;;;;;4990926;28;20034;-47
2022/07/23 09:31:56;;;;;;;6.72;3.60;;;44.80;48.30;;;;;;4990977;28;20026;-48
2022/07/23 09:34:26;;;;;;;4.70;3.55;;;45.00;47.50;;;;;;4976112;28;20066;-49
2022/07/23 09:36:57;;;;;;;4.63;3.75;;;44.90;47.70;;;;;;4975742;28;20023;-49
2022/07/23 09:39:29;;;;;;;4.35;3.58;;;45.30;47.20;;;;;;4975741;28;20031;-47
2022/07/23 09:41:55;;;;;;;4.22;3.83;;;45.30;47.70;;;;;;5007021;28;20027;-49
2022/07/23 09:44:21;;;;;;;4.88;3.90;;;42.40;48.30;;;;;;4975757;28;20034;-48
2022/07/23 09:46:48;;;;;;;4.57;3.63;;;41.80;50.60;;;;;;4990934;28;20030;-49
2022/07/23 09:49:20;;;;;;;3.65;3.35;;;42.30;48.30;;;;;;4976131;28;20026;-50
2022/07/23 09:51:51;;;;;;;4.93;3.47;;;41.60;50.00;;;;;;4975517;28;20093;-49
2022/07/23 09:54:26;;;;;;;5.18;3.65;;;42.40;49.30;;;;;;4975666;28;20030;-59
2022/07/23 09:56:53;;;;;;;4.60;3.60;;;43.00;49.50;;;;;;4990224;28;20030;-58
2022/07/23 09:59:23;;;;;;;5.30;3.45;;;43.30;48.30;;;;;;4990633;28;20070;-58
2022/07/23 10:01:49;;;;;;;10.10;4.07;;;43.20;49.60;;;;;;4990091;28;20025;-59
2022/07/23 10:04:15;;;;;;;7.50;4.10;;;43.00;48.20;;;;;;4990234;28;20035;-57
2022/07/23 10:06:43;;;;;;;4.28;3.88;;;42.20;49.20;;;;;;4990192;28;20027;-56
2022/07/23 10:09:12;;;;;;;5.40;3.67;;;43.10;48.90;;;;;;4975351;28;20065;-58
2022/07/23 10:11:38;;;;;;;6.03;4.63;;;42.90;48.50;;;;;;4975077;28;20037;-58
2022/07/23 10:14:05;;;;;;;5.30;4.82;;;41.00;50.10;;;;;;4990071;28;20031;-59
2022/07/23 10:16:31;;;;;;;5.10;4.28;;;40.90;50.50;;;;;;4974076;28;20077;-59
2022/07/23 10:18:57;;;;;;;5.05;4.10;;;41.30;50.10;;;;;;4990335;28;20034;-59
2022/07/23 10:21:44;;;;;;;5.57;4.18;;;41.90;49.80;;;;;;4990234;28;20061;-59
2022/07/23 10:24:39;;;;;;;6.78;4.63;;;42.70;49.90;;;;;;4974814;28;20027;-59
2022/07/23 10:27:19;;;;;;;8.18;4.30;;;43.00;48.80;;;;;;5007037;28;20030;-59
2022/07/23 10:29:54;;;;;;;4.90;4.40;;;42.80;49.40;;;;;;4973621;28;20038;-59
2022/07/23 10:32:43;;;;;;;8.68;4.38;;;42.30;48.40;;;;;;4974836;28;20440;-57
2022/07/23 10:35:34;;;;;;;5.17;4.63;;;41.00;50.50;;;;;;4974867;28;20023;-59
2022/07/23 10:38:25;;;;;;;6.38;4.55;;;40.70;50.70;;;;;;5006258;28;20494;-58
2022/07/23 10:40:55;;;;;;;4.90;4.45;;;40.10;50.20;;;;;;4990510;28;20033;-59
2022/07/23 10:43:20;;;;;;;4.60;4.17;;;39.80;51.10;;;;;;4973850;28;20034;-59
2022/07/23 10:45:46;;;;;;;5.82;4.72;;;39.40;52.50;;;;;;5006953;28;20027;-59
2022/07/23 10:48:13;;;;;;;5.53;4.60;;;39.40;51.80;;;;;;4975317;28;20038;-56
2022/07/23 10:50:40;;;;;;;5.50;4.82;;;38.80;52.50;;;;;;4974526;28;20019;-56
2022/07/23 10:53:08;;;;;;;5.20;4.70;;;38.40;53.10;;;;;;4990147;28;20054;-56
2022/07/23 10:55:34;;;;;;;6.13;5.22;;;37.40;54.30;;;;;;4974587;28;20052;-56
2022/07/23 10:58:01;;;;;;;6.03;4.70;;;36.30;56.50;;;;;;4974224;28;20429;-58
2022/07/23 11:00:28;;;;;;;11.55;5.05;;;36.10;57.30;;;;;;4974592;28;20106;-58
2022/07/23 11:02:59;;;;;;;5.82;5.25;;;35.80;58.70;;;;;;5006097;28;20126;-56
2022/07/23 11:05:39;;;;;;;5.20;4.65;;;35.70;57.60;;;;;;5005845;28;20062;-58
2022/07/23 11:08:12;;;;;;;19.02;5.57;;;35.20;57.70;;;;;;4974460;28;20038;-58
2022/07/23 11:11:03;;;;;;;6.50;5.32;;;35.10;58.60;;;;;;4974094;28;20117;-59
2022/07/23 11:13:31;;;;;;;5.28;4.40;;;34.70;58.70;;;;;;4974817;28;20027;-58
2022/07/23 11:16:12;;;;;;;6.20;4.82;;;34.60;59.00;;;;;;4989456;28;20494;-58
2022/07/23 11:18:44;;;;;;;5.75;4.07;;;34.60;59.00;;;;;;4974795;28;20482;-55
2022/07/23 11:21:28;;;;;;;6.90;4.38;;;34.50;58.70;;;;;;4973702;28;20034;-58
2022/07/23 11:24:03;;;;;;;5.05;4.40;;;34.30;59.30;;;;;;4973217;28;20026;-58
2022/07/23 11:26:43;;;;;;;5.45;4.82;;;33.90;60.10;;;;;;4974623;28;20019;-49
2022/07/23 11:29:33;;;;;;;5.28;4.78;;;33.80;60.30;;;;;;4973525;28;20039;-49
2022/07/23 11:32:01;;;;;;;;;;;33.50;59.80;;;;;;4975000;28;20023;-46
2022/07/23 11:34:43;;;;;;;7.47;5.03;;;33.40;60.60;;;;;;4973297;28;19936;-47
2022/07/23 11:37:11;;;;;;;5.22;4.70;;;33.50;60.80;;;;;;4990609;28;20037;-48
2022/07/23 11:39:38;;;;;;;5.10;4.43;;;33.40;59.90;;;;;;4993747;28;20023;-48
2022/07/23 11:42:05;;;;;;;5.20;4.68;;;33.40;61.20;;;;;;4978062;28;20069;-50
2022/07/23 11:44:38;;;;;;;5.38;4.30;;;33.20;62.00;;;;;;4978077;28;20400;-47
2022/07/23 11:47:07;;;;;;;5.75;4.65;;;33.20;62.80;;;;;;4993002;28;20042;-46
2022/07/23 11:49:33;;;;;;;7.07;4.35;;;33.20;62.50;;;;;;4978325;28;20358;-51
2022/07/23 11:52:07;;;;;;;5.78;4.35;;;33.20;61.90;;;;;;4993195;28;20027;-49
2022/07/23 11:54:36;;;;;;;5.47;4.72;;;33.20;61.80;;;;;;4992820;28;20501;-51
2022/07/23 11:57:02;;;;;;;5.72;3.95;;;33.20;62.40;;;;;;4992761;28;20027;-46
2022/07/23 11:59:31;;;;;;;5.60;4.90;;;33.20;61.40;;;;;;4992532;28;20019;-47
2022/07/23 12:02:04;;;;;;;5.25;4.75;;;33.00;62.00;;;;;;4992684;28;20482;-48
2022/07/23 12:04:44;;;;;;;5.20;4.70;;;32.90;62.30;;;;;;4992661;28;20031;-48
2022/07/23 12:07:32;;;;;;;6.40;4.43;;;32.80;62.60;;;;;;4977247;28;20083;-47
2022/07/23 12:10:03;;;;;;;6.70;4.85;;;32.70;62.60;;;;;;4977116;28;20042;-48
2022/07/23 12:12:40;;;;;;;8.35;4.38;;;32.70;62.70;;;;;;4977433;28;20025;-47
2022/07/23 12:15:06;;;;;;;6.70;4.50;;;32.70;61.60;;;;;;4977545;28;20109;-49
2022/07/23 12:17:36;;;;;;;5.43;4.70;;;31.80;62.30;;;;;;4992315;28;20023;-48
2022/07/23 12:20:05;;;;;;;8.10;4.00;;;31.60;64.50;;;;;;4977079;28;20037;-47
2022/07/23 12:22:40;;;;;;;4.57;4.18;;;31.70;64.30;;;;;;4977571;28;20023;-48
2022/07/23 12:25:12;;;;;;;5.43;4.10;;;31.90;63.50;;;;;;4976300;28;20027;-46
2022/07/23 12:27:38;;;;;;;6.95;4.72;;;32.00;62.80;;;;;;4977171;28;20026;-49
2022/07/23 12:30:26;;;;;;;5.53;4.25;;;32.00;62.10;;;;;;4992555;28;20022;-47
2022/07/23 12:32:55;;;;;;;6.78;4.40;;;32.30;62.00;;;;;;4976934;28;20503;-46
2022/07/23 12:35:22;;;;;;;5.05;4.38;;;32.20;63.00;;;;;;4977313;28;20081;-46
2022/07/23 12:37:52;;;;;;;6.35;5.40;;;32.30;62.30;;;;;;4975786;28;20030;-49
2022/07/23 12:40:40;;;;;;;10.13;4.43;;;32.40;62.00;;;;;;4976973;28;20095;-50
2022/07/23 12:43:10;;;;;;;9.60;4.60;;;32.30;61.70;;;;;;4977430;28;20110;-48
2022/07/23 12:45:45;;;;;;;6.43;4.90;;;32.20;61.00;;;;;;4992148;28;20110;-46
2022/07/23 12:48:26;;;;;;;6.10;4.20;;;32.20;62.60;;;;;;4976664;28;20026;-47
2022/07/23 12:50:53;;;;;;;4.43;4.03;;;32.00;61.40;;;;;;4991685;28;20027;-49